createdAt,value
2022-08-25T00:02:03.111Z,3.10
2022-08-25T00:04:31.557Z,3.13
2022-08-25T00:07:03.388Z,3.08
2022-08-25T00:09:32.066Z,3.50
2022-08-25T00:11:59.482Z,3.10
2022-08-25T00:14:35.435Z,3.20
2022-08-25T00:17:04.212Z,3.28
2022-08-25T00:19:35.520Z,3.42
2022-08-25T00:22:03.138Z,3.40
2022-08-25T00:24:30.407Z,3.28
2022-08-25T00:26:58.950Z,3.30
2022-08-25T00:29:26.929Z,3.75
2022-08-25T00:31:55.058Z,3.60
2022-08-25T00:34:36.545Z,3.17
2022-08-25T00:37:07.280Z,3.33
2022-08-25T00:39:34.274Z,3.25
2022-08-25T00:42:01.751Z,3.25
2022-08-25T00:44:31.880Z,3.17
2022-08-25T00:47:01.096Z,3.30
2022-08-25T00:49:42.176Z,3.50
2022-08-25T00:52:22.893Z,3.33
2022-08-25T00:54:56.986Z,3.70
2022-08-25T00:57:37.587Z,3.75
2022-08-25T01:00:10.775Z,3.55
2022-08-25T01:02:37.818Z,3.67
2022-08-25T01:05:05.448Z,3.10
2022-08-25T01:07:33.455Z,3.50
2022-08-25T01:10:01.101Z,3.60
2022-08-25T01:12:27.895Z,3.70
2022-08-25T01:14:56.653Z,3.40
2022-08-25T01:17:23.411Z,3.65
2022-08-25T01:19:50.087Z,3.80
2022-08-25T01:22:17.367Z,3.53
2022-08-25T01:25:05.949Z,3.45
2022-08-25T01:27:32.638Z,3.57
2022-08-25T01:29:59.407Z,3.53
2022-08-25T01:32:26.308Z,3.70
2022-08-25T01:34:53.024Z,3.80
2022-08-25T01:37:20.730Z,3.43
2022-08-25T01:39:47.853Z,3.83
2022-08-25T01:42:38.871Z,3.38
2022-08-25T01:45:06.136Z,3.42
2022-08-25T01:47:33.427Z,3.70
2022-08-25T01:50:00.201Z,3.60
2022-08-25T01:52:36.855Z,4.03
2022-08-25T01:55:04.523Z,3.95
2022-08-25T01:57:31.753Z,3.30
2022-08-25T01:59:59.194Z,3.88
2022-08-25T02:02:26.293Z,3.97
2022-08-25T02:04:53.186Z,4.13
2022-08-25T02:07:20.444Z,3.73
2022-08-25T02:09:47.173Z,3.97
2022-08-25T02:12:14.015Z,3.97
2022-08-25T02:14:40.774Z,4.23
2022-08-25T02:17:09.800Z,3.60
2022-08-25T02:19:37.015Z,3.95
2022-08-25T02:22:03.896Z,3.97
2022-08-25T02:24:30.587Z,3.70
2022-08-25T02:26:58.190Z,3.63
2022-08-25T02:29:24.998Z,3.78
2022-08-25T02:31:51.934Z,3.83
2022-08-25T02:34:18.752Z,4.07
2022-08-25T02:36:45.617Z,4.00
2022-08-25T02:39:12.888Z,4.25
2022-08-25T02:41:40.098Z,4.10
2022-08-25T02:44:08.914Z,4.05
2022-08-25T02:46:36.789Z,4.55
2022-08-25T02:49:04.771Z,4.30
2022-08-25T02:51:31.990Z,4.43
2022-08-25T02:54:02.086Z,4.53
2022-08-25T02:56:29.828Z,4.70
2022-08-25T02:58:57.113Z,4.90
2022-08-25T03:01:29.059Z,4.20
2022-08-25T03:03:56.990Z,4.35
2022-08-25T03:06:24.917Z,4.77
2022-08-25T03:08:53.282Z,4.72
2022-08-25T03:11:20.857Z,4.33
2022-08-25T03:13:51.024Z,4.60
2022-08-25T03:16:18.768Z,4.80
2022-08-25T03:18:45.928Z,4.93
2022-08-25T03:21:14.150Z,4.90
2022-08-25T03:23:46.377Z,4.97
2022-08-25T03:26:31.451Z,5.10
2022-08-25T03:28:58.347Z,4.97
2022-08-25T03:31:28.963Z,4.67
2022-08-25T03:33:55.745Z,5.40
2022-08-25T03:36:23.053Z,4.63
2022-08-25T03:38:50.956Z,5.07
2022-08-25T03:41:24.354Z,5.30
2022-08-25T03:43:55.313Z,4.93
2022-08-25T03:46:26.573Z,4.73
2022-08-25T03:48:53.728Z,6.00
2022-08-25T03:51:29.729Z,4.83
2022-08-25T03:53:57.830Z,5.17
2022-08-25T03:56:25.286Z,5.67
2022-08-25T03:58:52.536Z,5.53
2022-08-25T04:01:19.305Z,5.20
2022-08-25T04:03:47.171Z,5.53
2022-08-25T04:06:15.947Z,5.70
2022-08-25T04:08:42.945Z,5.37
2022-08-25T04:11:21.451Z,6.17
2022-08-25T04:13:49.067Z,5.90
2022-08-25T04:16:24.328Z,5.47
2022-08-25T04:18:52.386Z,5.90
2022-08-25T04:21:20.392Z,5.17
2022-08-25T04:23:48.926Z,5.22
2022-08-25T04:26:23.445Z,5.75
2022-08-25T04:28:50.381Z,5.90
2022-08-25T04:31:19.287Z,6.35
2022-08-25T04:33:48.901Z,6.77
2022-08-25T04:36:18.060Z,5.90
2022-08-25T04:38:46.267Z,6.70
2022-08-25T04:41:15.685Z,6.45
2022-08-25T04:43:44.032Z,6.20
2022-08-25T04:46:20.223Z,6.07
2022-08-25T04:48:49.049Z,5.90
2022-08-25T04:51:19.314Z,5.97
2022-08-25T04:53:46.609Z,5.68
2022-08-25T04:56:25.150Z,6.65
2022-08-25T04:58:52.501Z,6.90
2022-08-25T05:01:24.251Z,6.23
2022-08-25T05:04:00.056Z,6.70
2022-08-25T05:06:28.887Z,7.17
2022-08-25T05:08:57.222Z,7.27
2022-08-25T05:11:25.174Z,7.07
2022-08-25T05:13:55.072Z,8.00
2022-08-25T05:16:23.431Z,8.02
2022-08-25T05:18:51.019Z,7.53
2022-08-25T05:21:21.621Z,8.48
2022-08-25T05:23:49.103Z,8.18
2022-08-25T05:26:22.531Z,8.77
2022-08-25T05:28:51.335Z,8.77
2022-08-25T05:31:20.004Z,7.90
2022-08-25T05:33:46.964Z,8.67
2022-08-25T05:36:15.353Z,8.45
2022-08-25T05:38:42.609Z,8.70
2022-08-25T05:41:16.352Z,9.00
2022-08-25T05:43:47.969Z,9.20
2022-08-25T05:46:15.830Z,8.50
2022-08-25T05:48:42.552Z,7.85
2022-08-25T05:51:11.600Z,8.50
2022-08-25T05:53:40.578Z,7.32
2022-08-25T05:56:08.370Z,7.82
2022-08-25T05:58:36.387Z,8.00
2022-08-25T06:01:22.823Z,7.00
2022-08-25T06:03:54.322Z,6.50
2022-08-25T06:06:30.601Z,6.60
2022-08-25T06:08:57.328Z,6.70
2022-08-25T06:11:24.047Z,6.27
2022-08-25T06:13:50.759Z,5.80
2022-08-25T06:16:18.543Z,5.50
2022-08-25T06:18:45.820Z,6.05
2022-08-25T06:21:14.535Z,5.45
2022-08-25T06:23:41.353Z,5.40
2022-08-25T06:26:18.141Z,5.22
2022-08-25T06:28:48.934Z,4.85
2022-08-25T06:31:15.733Z,4.80
2022-08-25T06:33:43.243Z,4.55
2022-08-25T06:36:10.053Z,4.75
2022-08-25T06:38:37.085Z,4.40
2022-08-25T06:41:05.396Z,3.95
2022-08-25T06:43:33.815Z,4.18
2022-08-25T06:46:15.722Z,3.60
2022-08-25T06:48:43.109Z,3.50
2022-08-25T06:51:16.419Z,3.72
2022-08-25T06:53:45.145Z,3.83
2022-08-25T06:56:12.464Z,4.05
2022-08-25T06:58:39.784Z,4.05
2022-08-25T07:01:14.992Z,4.90
2022-08-25T07:03:48.116Z,4.53
2022-08-25T07:06:18.336Z,4.35
2022-08-25T07:08:46.532Z,4.38
2022-08-25T07:11:16.579Z,4.07
2022-08-25T07:13:45.509Z,4.65
2022-08-25T07:16:13.782Z,5.07
2022-08-25T07:18:40.507Z,4.40
2022-08-25T07:21:09.170Z,4.30
2022-08-25T07:23:36.743Z,3.85
2022-08-25T07:29:10.599Z,4.32
2022-08-25T07:31:37.741Z,4.55
2022-08-25T07:34:24.092Z,4.60
2022-08-25T07:36:52.530Z,4.20
2022-08-25T07:39:19.616Z,4.30
2022-08-25T07:41:51.955Z,4.25
2022-08-25T07:44:20.709Z,4.10
2022-08-25T07:46:48.477Z,3.97
2022-08-25T07:49:17.820Z,3.80
2022-08-25T07:52:04.703Z,3.50
2022-08-25T07:54:35.198Z,3.70
2022-08-25T07:57:08.709Z,3.47
2022-08-25T07:59:39.896Z,3.83
2022-08-25T08:02:16.058Z,4.15
2022-08-25T08:04:48.674Z,4.13
2022-08-25T08:07:41.859Z,3.63
2022-08-25T08:10:42.444Z,3.75
2022-08-25T08:12:58.656Z,3.70
2022-08-25T08:15:25.335Z,3.67
2022-08-25T08:17:56.826Z,3.25
2022-08-25T08:20:25.638Z,3.60
2022-08-25T08:22:52.537Z,3.70
2022-08-25T08:25:21.167Z,4.05
2022-08-25T08:27:48.908Z,3.47
2022-08-25T08:30:17.026Z,3.47
2022-08-25T08:33:08.571Z,3.33
2022-08-25T08:35:31.130Z,3.20
2022-08-25T08:37:57.865Z,3.70
2022-08-25T08:40:24.726Z,3.63
2022-08-25T08:43:07.191Z,4.03
2022-08-25T08:45:53.179Z,3.78
2022-08-25T08:48:39.426Z,3.58
2022-08-25T08:51:24.536Z,3.35
2022-08-25T08:54:15.141Z,3.25
2022-08-25T08:56:48.105Z,3.60
2022-08-25T08:59:30.296Z,3.92
2022-08-25T09:02:00.703Z,3.22
2022-08-25T09:04:46.367Z,3.30
2022-08-25T09:07:24.337Z,3.38
2022-08-25T09:09:52.234Z,3.40
2022-08-25T09:12:47.488Z,2.95
2022-08-25T09:16:04.258Z,3.38
2022-08-25T09:18:51.259Z,2.88
2022-08-25T09:21:39.155Z,3.60
2022-08-25T09:24:26.067Z,3.83
2022-08-25T09:27:03.863Z,3.28
2022-08-25T09:30:07.456Z,3.30
2022-08-25T09:33:03.791Z,3.35
2022-08-25T09:35:34.740Z,3.15
2022-08-25T09:38:05.099Z,3.63
2022-08-25T09:40:36.935Z,3.80
2022-08-25T09:43:19.543Z,3.22
2022-08-25T09:45:49.763Z,3.38
2022-08-25T09:48:42.695Z,3.30
2022-08-25T09:51:42.267Z,3.60
2022-08-25T09:54:13.092Z,2.88
2022-08-25T09:57:00.549Z,3.13
2022-08-25T09:59:36.390Z,2.97
2022-08-25T10:02:21.599Z,3.38
2022-08-25T10:04:48.509Z,3.05
2022-08-25T10:07:39.634Z,2.67
2022-08-25T10:10:18.992Z,3.22
2022-08-25T10:12:51.259Z,3.30
2022-08-25T10:15:29.893Z,2.78
2022-08-25T10:18:20.013Z,2.95
2022-08-25T10:21:07.582Z,3.25
2022-08-25T10:23:37.584Z,2.92
2022-08-25T10:26:11.794Z,3.13
2022-08-25T10:28:59.635Z,3.20
2022-08-25T10:31:34.833Z,2.88
2022-08-25T10:34:20.005Z,2.95
2022-08-25T10:36:47.157Z,3.22
2022-08-25T10:39:37.084Z,2.83
2022-08-25T10:42:29.414Z,3.50
2022-08-25T10:45:39.562Z,2.88
2022-08-25T10:48:43.140Z,3.03
2022-08-25T10:51:38.138Z,3.42
2022-08-25T10:54:16.330Z,2.90
2022-08-25T10:57:10.992Z,2.83
2022-08-25T10:59:49.979Z,3.80
2022-08-25T11:02:38.271Z,2.90
2022-08-25T11:05:40.583Z,2.97
2022-08-25T11:08:17.679Z,2.70
2022-08-25T11:10:53.550Z,3.38
2022-08-25T11:13:46.744Z,3.05
2022-08-25T11:16:37.148Z,3.03
2022-08-25T11:19:13.272Z,2.90
2022-08-25T11:21:40.090Z,3.38
2022-08-25T11:24:26.647Z,3.38
2022-08-25T11:26:57.369Z,2.83
2022-08-25T11:29:31.255Z,3.15
2022-08-25T11:31:59.995Z,3.38
2022-08-25T11:34:32.470Z,2.95
2022-08-25T11:37:11.328Z,3.10
2022-08-25T11:39:41.131Z,3.30
2022-08-25T11:42:43.340Z,2.95
2022-08-25T11:45:47.972Z,3.15
2022-08-25T11:48:21.687Z,3.50
2022-08-25T11:50:54.509Z,3.42
2022-08-25T11:53:37.918Z,3.47
2022-08-25T11:56:12.621Z,3.38
2022-08-25T11:58:53.799Z,3.30
2022-08-25T12:01:39.163Z,3.05
2022-08-25T12:04:16.203Z,3.33
2022-08-25T12:07:11.313Z,3.38
2022-08-25T12:09:50.052Z,3.00
2022-08-25T12:12:41.589Z,3.25
2022-08-25T12:15:42.774Z,3.40
2022-08-25T12:18:11.481Z,3.50
2022-08-25T12:20:53.956Z,3.20
2022-08-25T12:23:37.898Z,3.20
2022-08-25T12:26:30.887Z,3.10
2022-08-25T12:29:25.679Z,2.75
2022-08-25T12:32:09.282Z,3.00
2022-08-25T12:34:39.215Z,3.33
2022-08-25T12:37:14.074Z,3.28
2022-08-25T12:39:50.537Z,2.85
2022-08-25T12:42:28.628Z,3.05
2022-08-25T12:45:25.503Z,3.13
2022-08-25T12:47:57.533Z,3.28
2022-08-25T12:50:39.601Z,3.40
2022-08-25T12:53:20.063Z,3.33
2022-08-25T12:55:56.904Z,3.75
2022-08-25T12:58:38.587Z,3.47
2022-08-25T13:01:35.512Z,3.70
2022-08-25T13:04:41.564Z,3.63
2022-08-25T13:07:29.748Z,3.60
2022-08-25T13:10:10.867Z,3.50
2022-08-25T13:12:45.944Z,2.97
2022-08-25T13:15:15.647Z,3.47
2022-08-25T13:17:42.457Z,3.30
2022-08-25T13:20:11.981Z,3.20
2022-08-25T13:22:39.134Z,3.35
2022-08-25T13:25:06.314Z,3.17
2022-08-25T13:27:36.301Z,3.50
2022-08-25T13:30:05.510Z,3.20
2022-08-25T13:32:36.835Z,3.47
2022-08-25T13:35:19.875Z,3.15
2022-08-25T13:37:48.525Z,3.33
2022-08-25T13:40:24.700Z,3.38
2022-08-25T13:42:57.581Z,3.08
2022-08-25T13:45:28.809Z,3.30
2022-08-25T13:47:58.464Z,3.08
2022-08-25T13:50:31.723Z,3.20
2022-08-25T13:53:00.357Z,3.20
2022-08-25T13:55:51.671Z,2.83
2022-08-25T13:58:24.627Z,2.90
2022-08-25T14:01:19.983Z,3.30
2022-08-25T14:04:25.179Z,3.53
2022-08-25T14:07:19.589Z,3.72
2022-08-25T14:09:57.664Z,3.28
2022-08-25T14:12:36.780Z,3.85
2022-08-25T14:15:12.353Z,2.83
2022-08-25T14:17:42.641Z,3.25
2022-08-25T14:20:20.532Z,2.90
2022-08-25T14:22:49.732Z,3.00
2022-08-25T14:25:16.586Z,3.38
2022-08-25T14:28:03.715Z,3.20
2022-08-25T14:30:34.331Z,3.50
2022-08-25T14:33:02.731Z,3.00
2022-08-25T14:35:29.687Z,3.53
2022-08-25T14:37:58.492Z,3.20
2022-08-25T14:40:25.360Z,3.42
2022-08-25T14:42:52.137Z,3.33
2022-08-25T14:45:19.716Z,3.60
2022-08-25T14:47:49.799Z,2.90
2022-08-25T14:50:20.166Z,3.50
2022-08-25T14:52:48.361Z,3.33
2022-08-25T14:55:31.629Z,3.40
2022-08-25T14:57:59.408Z,3.10
2022-08-25T15:00:26.498Z,3.25
2022-08-25T15:02:55.952Z,2.95
2022-08-25T15:05:28.465Z,3.13
2022-08-25T15:08:14.494Z,3.10
2022-08-25T15:10:43.476Z,3.05
2022-08-25T15:13:10.916Z,3.35
2022-08-25T15:15:52.107Z,3.60
2022-08-25T15:18:21.003Z,2.95
2022-08-25T15:20:49.882Z,3.17
2022-08-25T15:23:21.001Z,3.05
2022-08-25T15:25:52.961Z,3.60
2022-08-25T15:28:21.964Z,3.58
2022-08-25T15:30:52.163Z,3.13
2022-08-25T15:33:19.051Z,3.10
2022-08-25T15:35:46.302Z,3.50
2022-08-25T15:38:13.271Z,3.25
2022-08-25T15:40:40.577Z,3.00
2022-08-25T15:43:07.557Z,3.60
2022-08-25T15:45:36.136Z,3.28
2022-08-25T15:48:09.582Z,3.13
2022-08-25T15:50:37.139Z,3.28
2022-08-25T15:53:07.076Z,3.38
2022-08-25T15:55:39.521Z,3.05
2022-08-25T15:58:07.106Z,3.55
2022-08-25T16:00:36.448Z,3.65
2022-08-25T16:03:04.928Z,3.25
2022-08-25T16:05:39.323Z,3.38
2022-08-25T16:08:19.724Z,3.47
2022-08-25T16:10:46.961Z,4.28
2022-08-25T16:13:14.075Z,3.03
2022-08-25T16:15:46.054Z,3.47
2022-08-25T16:18:12.910Z,3.28
2022-08-25T16:20:46.733Z,3.00
2022-08-25T16:23:14.459Z,3.08
2022-08-25T16:25:43.606Z,3.13
2022-08-25T16:28:15.449Z,3.08
2022-08-25T16:30:52.641Z,2.97
2022-08-25T16:33:20.602Z,3.15
2022-08-25T16:35:49.452Z,3.45
2022-08-25T16:38:20.679Z,3.58
2022-08-25T16:40:49.063Z,3.10
2022-08-25T16:43:17.736Z,2.92
2022-08-25T16:45:44.595Z,3.40
2022-08-25T16:48:11.237Z,3.00
2022-08-25T16:50:39.639Z,3.45
2022-08-25T16:53:25.714Z,3.70
2022-08-25T16:56:01.740Z,3.33
2022-08-25T16:58:30.087Z,3.17
2022-08-25T17:01:09.433Z,3.00
2022-08-25T17:03:37.396Z,3.53
2022-08-25T17:06:05.166Z,3.45
2022-08-25T17:08:33.317Z,4.43
2022-08-25T17:11:12.250Z,3.22
2022-08-25T17:13:44.693Z,3.30
2022-08-25T17:16:14.601Z,3.65
2022-08-25T17:18:41.708Z,3.10
2022-08-25T17:21:13.073Z,3.55
2022-08-25T17:23:46.306Z,3.63
2022-08-25T17:26:20.259Z,3.30
2022-08-25T17:29:00.126Z,3.38
2022-08-25T17:31:27.854Z,3.15
2022-08-25T17:33:55.131Z,3.25
2022-08-25T17:36:27.231Z,3.67
2022-08-25T17:38:55.368Z,3.45
2022-08-25T17:41:24.277Z,3.33
2022-08-25T17:43:51.031Z,3.50
2022-08-25T17:46:18.231Z,3.25
2022-08-25T17:48:46.283Z,3.50
2022-08-25T17:51:13.298Z,3.58
2022-08-25T17:53:43.944Z,3.40
2022-08-25T17:56:14.887Z,3.80
2022-08-25T17:58:42.582Z,3.47
2022-08-25T18:01:16.938Z,3.63
2022-08-25T18:03:44.249Z,3.60
2022-08-25T18:06:15.170Z,4.10
2022-08-25T18:08:44.177Z,3.60
2022-08-25T18:11:11.131Z,3.90
2022-08-25T18:13:38.733Z,4.05
2022-08-25T18:16:07.564Z,3.70
2022-08-25T18:18:35.830Z,3.40
2022-08-25T18:21:03.090Z,3.58
2022-08-25T18:23:29.939Z,3.38
2022-08-25T18:26:00.815Z,4.13
2022-08-25T18:28:29.182Z,3.97
2022-08-25T18:30:57.745Z,3.63
2022-08-25T18:33:24.581Z,3.85
2022-08-25T18:35:52.000Z,3.78
2022-08-25T18:38:37.461Z,3.80
2022-08-25T18:41:06.705Z,3.90
2022-08-25T18:43:35.007Z,3.83
2022-08-25T18:46:04.677Z,3.40
2022-08-25T18:48:32.085Z,4.07
2022-08-25T18:51:00.949Z,3.60
2022-08-25T18:53:49.633Z,3.63
2022-08-25T18:56:18.062Z,4.30
2022-08-25T18:58:45.587Z,4.07
2022-08-25T19:01:14.523Z,3.78
2022-08-25T19:03:42.552Z,3.85
2022-08-25T19:06:09.481Z,4.32
2022-08-25T19:08:38.449Z,4.05
2022-08-25T19:11:08.621Z,3.70
2022-08-25T19:13:35.478Z,4.10
2022-08-25T19:16:31.521Z,3.85
2022-08-25T19:19:03.265Z,4.60
2022-08-25T19:21:31.243Z,4.07
2022-08-25T19:23:58.012Z,3.88
2022-08-25T19:26:25.713Z,3.80
2022-08-25T19:28:53.718Z,4.00
2022-08-25T19:34:28.092Z,4.10
2022-08-25T19:36:58.803Z,4.07
2022-08-25T19:39:26.040Z,4.38
2022-08-25T19:41:52.683Z,4.20
2022-08-25T19:44:20.498Z,4.68
2022-08-25T19:46:47.228Z,3.90
2022-08-25T19:49:26.202Z,4.05
2022-08-25T19:51:54.967Z,4.10
2022-08-25T19:54:27.700Z,3.92
2022-08-25T19:56:55.749Z,4.60
2022-08-25T19:59:25.904Z,3.92
2022-08-25T20:01:53.348Z,4.15
2022-08-25T20:04:24.557Z,4.30
2022-08-25T20:06:53.087Z,4.28
2022-08-25T20:09:39.463Z,4.15
2022-08-25T20:12:10.003Z,3.92
2022-08-25T20:14:36.931Z,4.55
2022-08-25T20:17:04.059Z,3.58
2022-08-25T20:19:41.503Z,3.45
2022-08-25T20:22:11.853Z,4.35
2022-08-25T20:24:56.193Z,3.97
2022-08-25T20:27:31.935Z,4.80
2022-08-25T20:29:59.721Z,4.57
2022-08-25T20:32:32.116Z,4.60
2022-08-25T20:34:59.248Z,4.20
2022-08-25T20:37:26.466Z,4.13
2022-08-25T20:39:53.396Z,4.78
2022-08-25T20:42:20.539Z,4.40
2022-08-25T20:44:47.503Z,4.93
2022-08-25T20:47:15.055Z,4.43
2022-08-25T20:49:44.989Z,4.55
2022-08-25T20:52:14.025Z,4.50
2022-08-25T20:54:49.478Z,4.47
2022-08-25T20:57:25.449Z,4.45
2022-08-25T20:59:53.876Z,4.57
2022-08-25T21:02:21.351Z,4.90
2022-08-25T21:04:48.963Z,4.28
2022-08-25T21:07:18.415Z,4.93
2022-08-25T21:09:46.740Z,4.50
2022-08-25T21:12:14.830Z,4.53
2022-08-25T21:14:42.089Z,4.70
2022-08-25T21:17:13.048Z,4.75
2022-08-25T21:19:42.042Z,4.68
2022-08-25T21:22:10.747Z,4.40
2022-08-25T21:24:38.518Z,4.40
2022-08-25T21:27:05.592Z,4.40
2022-08-25T21:29:33.464Z,4.55
2022-08-25T21:32:00.790Z,5.20
2022-08-25T21:34:28.996Z,4.43
2022-08-25T21:36:58.121Z,5.22
2022-08-25T21:39:27.630Z,4.95
2022-08-25T21:41:55.294Z,5.10
2022-08-25T21:44:22.728Z,4.53
2022-08-25T21:46:54.290Z,4.68
2022-08-25T21:49:22.563Z,4.70
2022-08-25T21:51:59.283Z,4.85
2022-08-25T21:54:26.490Z,5.30
2022-08-25T21:56:59.764Z,5.07
2022-08-25T21:59:29.912Z,4.25
2022-08-25T22:02:00.131Z,4.47
2022-08-25T22:04:28.641Z,5.10
2022-08-25T22:06:58.127Z,4.50
2022-08-25T22:09:28.397Z,4.80
2022-08-25T22:11:55.822Z,4.80
2022-08-25T22:14:23.823Z,4.82
2022-08-25T22:16:53.210Z,5.22
2022-08-25T22:19:21.583Z,4.85
2022-08-25T22:21:53.536Z,5.18
2022-08-25T22:24:20.680Z,5.25
2022-08-25T22:26:48.591Z,4.88
2022-08-25T22:29:25.531Z,4.60
2022-08-25T22:32:02.094Z,5.10
2022-08-25T22:34:32.436Z,4.28
2022-08-25T22:37:01.783Z,5.43
2022-08-25T22:39:31.091Z,4.93
2022-08-25T22:41:59.872Z,5.75
2022-08-25T22:44:26.681Z,5.20
2022-08-25T22:46:53.758Z,4.65
2022-08-25T22:49:21.894Z,5.10
2022-08-25T22:51:49.049Z,4.95
2022-08-25T22:54:16.760Z,5.05
2022-08-25T22:56:43.634Z,4.95
2022-08-25T22:59:13.463Z,5.97
2022-08-25T23:01:43.086Z,5.60
2022-08-25T23:04:10.784Z,5.40
2022-08-25T23:06:38.052Z,5.80
2022-08-25T23:09:06.870Z,5.55
2022-08-25T23:11:35.864Z,5.60
2022-08-25T23:14:10.285Z,5.72
2022-08-25T23:16:39.538Z,5.93
2022-08-25T23:19:09.569Z,5.35
2022-08-25T23:21:56.818Z,6.88
2022-08-25T23:24:29.903Z,5.40
2022-08-25T23:27:01.664Z,5.75
2022-08-25T23:29:30.839Z,6.30
2022-08-25T23:31:58.512Z,6.03
2022-08-25T23:34:28.621Z,5.80
2022-08-25T23:36:56.408Z,5.57
2022-08-25T23:39:23.397Z,6.28
2022-08-25T23:41:51.050Z,6.28
2022-08-25T23:44:18.940Z,6.05
2022-08-25T23:46:47.660Z,5.57
2022-08-25T23:49:18.387Z,5.57
2022-08-25T23:51:47.519Z,5.95
2022-08-25T23:54:14.839Z,5.38
2022-08-25T23:56:51.476Z,6.03
2022-08-25T23:59:20.490Z,5.32
